Time;durP1;ratioP1;P1;durP2;ratioP2;P2;SDS_P1;SDS_P2;PMS_P1;PMS_P2;Temp;Humidity;BMP_temperature;BMP_pressure;BME280_temperature;BME280_humidity;BME280_pressure;Samples;Min_cycle;Max_cycle;Signal;HPM_P1;HPM_P2
2023/09/13 14:22:24;;;;;;;1.30;1.20;;;19.90;86.90;;;;;;6062231;22;1404350;-81
2023/09/13 14:24:50;;;;;;;1.50;1.10;;;19.90;87.20;;;;;;6102979;23;20136;-81
2023/09/13 14:27:16;;;;;;;1.23;0.93;;;19.90;86.40;;;;;;6126524;23;20136;-82
2023/09/13 14:29:42;;;;;;;1.77;1.23;;;19.90;86.70;;;;;;6078420;23;20147;-82
2023/09/13 14:32:09;;;;;;;1.65;1.10;;;19.90;85.80;;;;;;6102505;23;20143;-82
2023/09/13 14:34:39;;;;;;;1.60;1.10;;;19.90;86.10;;;;;;6080339;23;20186;-82
2023/09/13 14:37:07;;;;;;;1.10;0.90;;;19.90;86.40;;;;;;6101928;23;20174;-83
2023/09/13 14:39:33;;;;;;;1.23;1.00;;;19.90;86.00;;;;;;6102112;23;20243;-82
2023/09/13 14:42:00;;;;;;;1.30;1.00;;;19.90;85.70;;;;;;6102863;23;20167;-85
2023/09/13 14:44:25;;;;;;;1.05;0.90;;;19.90;85.40;;;;;;6126418;23;20168;-83
2023/09/13 14:46:54;;;;;;;1.10;1.00;;;19.90;85.50;;;;;;6078672;23;20768;-84
2023/09/13 14:49:24;;;;;;;1.33;0.95;;;19.90;85.50;;;;;;6127035;23;20178;-83
2023/09/13 14:51:49;;;;;;;1.30;1.20;;;19.90;85.20;;;;;;6127184;23;20128;-81
2023/09/13 14:54:17;;;;;;;1.40;1.02;;;19.90;85.40;;;;;;6103275;23;20266;-83
2023/09/13 14:56:43;;;;;;;2.13;1.08;;;19.90;85.50;;;;;;6101579;23;20201;-82
2023/09/13 14:59:09;;;;;;;1.52;1.20;;;19.80;85.90;;;;;;6152200;22;20242;-81
2023/09/13 15:01:35;;;;;;;1.38;0.98;;;19.80;86.00;;;;;;6101353;23;20546;-81
2023/09/13 15:04:00;;;;;;;1.77;1.23;;;19.80;85.90;;;;;;6125579;23;20167;-83
2023/09/13 15:06:26;;;;;;;1.67;1.13;;;19.80;86.30;;;;;;6151611;22;20140;-82
2023/09/13 15:08:52;;;;;;;1.67;1.10;;;19.80;86.00;;;;;;6150641;22;20143;-82
2023/09/13 15:11:18;;;;;;;1.50;1.40;;;19.90;86.40;;;;;;6101794;23;20197;-84
2023/09/13 15:13:45;;;;;;;1.55;1.00;;;19.80;86.80;;;;;;6126648;23;20478;-83
2023/09/13 15:16:13;;;;;;;1.02;1.00;;;19.80;86.30;;;;;;6151492;23;20211;-82
2023/09/13 15:18:38;;;;;;;2.55;1.20;;;19.80;86.40;;;;;;6101358;23;20163;-82
2023/09/13 15:21:04;;;;;;;1.85;1.25;;;19.80;86.50;;;;;;6125627;23;20156;-81
2023/09/13 15:23:30;;;;;;;1.40;1.20;;;19.70;86.00;;;;;;6071609;23;20581;-82
2023/09/13 15:25:55;;;;;;;1.00;0.90;;;19.80;86.00;;;;;;6096148;23;20152;-82
2023/09/13 15:28:21;;;;;;;1.58;1.10;;;19.80;85.20;;;;;;6122146;23;20132;-82
2023/09/13 15:30:47;;;;;;;1.80;1.10;;;19.70;85.30;;;;;;6097133;23;20160;-83
2023/09/13 15:33:12;;;;;;;1.55;1.10;;;19.80;84.90;;;;;;6121771;23;20480;-82
2023/09/13 15:35:41;;;;;;;1.55;1.00;;;19.80;85.30;;;;;;6096493;23;20243;-83
2023/09/13 15:38:07;;;;;;;3.88;1.27;;;19.80;84.50;;;;;;6099134;23;20139;-82
2023/09/13 15:40:34;;;;;;;1.48;1.10;;;19.80;84.40;;;;;;6121420;23;20144;-83
2023/09/13 15:43:00;;;;;;;3.35;1.13;;;19.80;84.10;;;;;;6120381;23;20568;-82
2023/09/13 15:45:26;;;;;;;4.35;1.40;;;19.80;84.10;;;;;;6096617;23;20163;-82
2023/09/13 15:47:52;;;;;;;2.72;1.27;;;19.80;84.30;;;;;;6096314;23;20479;-83
2023/09/13 15:50:19;;;;;;;1.48;1.00;;;19.80;84.70;;;;;;6096242;23;20156;-82
2023/09/13 15:52:45;;;;;;;1.45;1.30;;;19.80;83.60;;;;;;6096816;23;20136;-83
2023/09/13 15:55:11;;;;;;;1.40;1.10;;;19.80;83.20;;;;;;6120489;23;20136;-83
2023/09/13 15:57:37;;;;;;;1.80;1.30;;;19.70;83.40;;;;;;6121781;23;20131;-82
2023/09/13 16:00:03;;;;;;;1.50;1.10;;;19.70;83.70;;;;;;6121986;23;20141;-82
2023/09/13 16:02:30;;;;;;;1.65;1.10;;;19.70;83.10;;;;;;6072439;23;20156;-82
2023/09/13 16:04:56;;;;;;;2.25;1.30;;;19.80;83.20;;;;;;6096467;23;20152;-82
2023/09/13 16:07:22;;;;;;;2.33;1.13;;;19.70;83.10;;;;;;6121299;23;20136;-84
2023/09/13 16:09:48;;;;;;;2.10;1.10;;;19.80;83.10;;;;;;6120545;23;20157;-84
2023/09/13 16:13:22;;;;;;;1.45;1.17;;;19.70;82.70;;;;;;6122225;23;20132;-82
2023/09/13 16:15:23;;;;;;;1.10;1.00;;;19.80;83.50;;;;;;6111441;23;20156;-83
2023/09/13 16:17:49;;;;;;;1.30;1.00;;;19.80;83.00;;;;;;6120902;23;20151;-82
2023/09/13 16:20:15;;;;;;;2.17;1.50;;;19.70;82.80;;;;;;6120282;23;20187;-82
2023/09/13 16:22:41;;;;;;;1.52;1.02;;;19.80;82.70;;;;;;6127899;22;20199;-82
2023/09/13 16:25:07;;;;;;;1.38;1.10;;;19.70;82.60;;;;;;6125802;23;20134;-82
2023/09/13 16:27:34;;;;;;;1.45;1.10;;;19.70;82.20;;;;;;6152320;23;20164;-84
2023/09/13 16:30:01;;;;;;;2.08;1.08;;;19.70;82.80;;;;;;6126484;23;20521;-84
2023/09/13 16:32:27;;;;;;;1.83;1.20;;;19.70;82.80;;;;;;6126417;23;20155;-83
2023/09/13 16:34:53;;;;;;;1.60;1.00;;;19.70;82.00;;;;;;6126575;23;20698;-82
2023/09/13 16:37:19;;;;;;;1.63;1.15;;;19.70;82.30;;;;;;6131652;23;20139;-83
2023/09/13 16:39:44;;;;;;;1.65;1.20;;;19.70;82.20;;;;;;6158750;22;20157;-82
2023/09/13 16:42:11;;;;;;;3.28;1.30;;;19.70;82.00;;;;;;6133128;23;20140;-82
2023/09/13 16:44:36;;;;;;;1.83;1.10;;;19.70;81.70;;;;;;6132599;23;20174;-86
2023/09/13 16:47:05;;;;;;;1.70;1.02;;;19.60;81.60;;;;;;6131201;23;20160;-83
2023/09/13 16:49:31;;;;;;;2.72;0.93;;;19.70;81.70;;;;;;6176743;23;20151;-83
2023/09/13 16:51:58;;;;;;;1.27;0.93;;;19.70;81.40;;;;;;6151375;22;20142;-84
2023/09/13 16:54:27;;;;;;;2.97;1.10;;;19.70;81.80;;;;;;6151050;22;20939;-82
2023/09/13 16:56:55;;;;;;;1.95;1.10;;;19.70;82.80;;;;;;6075798;23;20151;-81
2023/09/13 16:59:21;;;;;;;2.03;1.00;;;19.70;81.80;;;;;;6075805;23;20238;-83
2023/09/13 17:01:46;;;;;;;1.95;1.10;;;19.70;81.70;;;;;;6151109;22;20208;-83
2023/09/13 17:04:13;;;;;;;1.45;1.02;;;19.70;81.40;;;;;;6151371;22;20179;-84
2023/09/13 17:06:41;;;;;;;1.48;0.90;;;19.80;81.10;;;;;;6052135;23;20192;-83
2023/09/13 17:09:08;;;;;;;3.80;1.23;;;19.70;81.80;;;;;;6123955;23;20151;-81
2023/09/13 17:11:34;;;;;;;3.40;1.02;;;19.70;81.40;;;;;;6125581;23;20458;-85
2023/09/13 17:13:59;;;;;;;2.20;0.88;;;19.70;80.70;;;;;;6100768;23;20200;-82
2023/09/13 17:16:25;;;;;;;1.00;0.90;;;19.70;80.80;;;;;;6125436;23;20571;-82
2023/09/13 17:18:51;;;;;;;1.70;0.95;;;19.70;80.80;;;;;;6100662;23;20139;-81
2023/09/13 17:21:17;;;;;;;0.80;0.80;;;19.70;81.30;;;;;;6100449;23;20563;-82
2023/09/13 17:23:42;;;;;;;2.90;0.98;;;19.70;81.00;;;;;;6100266;23;20216;-84
2023/09/13 17:26:08;;;;;;;2.42;1.20;;;19.70;81.40;;;;;;6125239;23;20581;-82
2023/09/13 17:28:35;;;;;;;1.77;1.00;;;19.70;81.90;;;;;;6124873;23;20143;-83
2023/09/13 17:31:00;;;;;;;1.55;1.00;;;19.60;81.80;;;;;;6125700;23;20136;-84
2023/09/13 17:33:26;;;;;;;1.70;1.10;;;19.70;81.10;;;;;;6151120;22;20234;-84
2023/09/13 17:35:52;;;;;;;1.70;0.95;;;19.70;81.00;;;;;;6125099;23;20132;-81
2023/09/13 17:38:18;;;;;;;2.33;0.98;;;19.70;80.80;;;;;;6125311;23;20155;-85
2023/09/13 17:40:46;;;;;;;1.30;0.77;;;19.70;80.70;;;;;;6151302;22;20136;-84
2023/09/13 17:43:12;;;;;;;2.42;1.25;;;19.70;80.60;;;;;;6125054;23;20246;-82
2023/09/13 17:45:38;;;;;;;1.50;0.90;;;19.70;80.30;;;;;;6124828;23;20155;-82
2023/09/13 17:48:04;;;;;;;1.80;1.33;;;19.70;80.70;;;;;;6125217;23;20132;-82
2023/09/13 17:50:30;;;;;;;1.35;0.90;;;19.70;80.70;;;;;;6100485;23;20154;-83
2023/09/13 17:52:56;;;;;;;1.15;0.80;;;19.70;80.10;;;;;;6100827;23;20139;-82
2023/09/13 17:55:22;;;;;;;1.52;0.80;;;19.70;79.90;;;;;;6124866;23;20128;-81
2023/09/13 17:57:49;;;;;;;1.83;1.05;;;19.70;80.00;;;;;;6076408;23;20139;-82
2023/09/13 18:00:15;;;;;;;2.38;1.00;;;19.80;79.50;;;;;;6101040;23;20215;-82
2023/09/13 18:02:41;;;;;;;1.92;1.13;;;19.70;79.40;;;;;;6124771;23;20571;-81
2023/09/13 18:05:06;;;;;;;1.30;0.85;;;19.80;79.40;;;;;;6124879;23;20238;-81
2023/09/13 18:07:33;;;;;;;1.70;0.90;;;19.80;79.60;;;;;;6123930;23;20154;-81
2023/09/13 18:09:59;;;;;;;2.45;1.00;;;19.70;79.10;;;;;;6150891;22;20357;-83
2023/09/13 18:12:25;;;;;;;1.33;0.90;;;19.80;79.00;;;;;;6150842;22;20486;-81
2023/09/13 18:14:51;;;;;;;1.05;0.82;;;19.80;78.90;;;;;;6125000;23;20139;-82
2023/09/13 18:17:16;;;;;;;1.10;0.70;;;19.70;78.30;;;;;;6150521;22;20143;-83
2023/09/13 18:19:43;;;;;;;1.13;1.00;;;19.80;78.50;;;;;;6152244;22;20169;-82
2023/09/13 18:22:09;;;;;;;1.20;0.80;;;19.80;79.10;;;;;;6152711;23;20140;-82
2023/09/13 18:24:35;;;;;;;2.47;0.90;;;19.80;78.50;;;;;;6152087;22;20215;-82
2023/09/13 18:27:00;;;;;;;1.50;1.00;;;19.80;78.20;;;;;;6101650;23;20209;-82
2023/09/13 18:29:26;;;;;;;0.73;0.70;;;19.70;78.20;;;;;;6152128;22;20454;-82
2023/09/13 18:31:57;;;;;;;1.77;0.90;;;19.70;77.90;;;;;;6126177;23;20211;-81
2023/09/13 18:34:23;;;;;;;1.75;0.82;;;19.80;78.10;;;;;;6125914;23;20158;-81
2023/09/13 18:36:49;;;;;;;1.27;0.90;;;19.80;77.80;;;;;;6126029;23;20151;-82
2023/09/13 18:39:14;;;;;;;0.80;0.80;;;19.80;77.40;;;;;;6125785;23;20482;-84
2023/09/13 18:41:40;;;;;;;1.52;0.70;;;19.70;77.50;;;;;;6125960;23;20135;-83
2023/09/13 18:44:09;;;;;;;1.00;0.90;;;19.80;77.60;;;;;;6151885;22;20270;-82
2023/09/13 18:46:36;;;;;;;1.40;0.73;;;19.80;77.30;;;;;;6126530;23;20136;-81
2023/09/13 18:49:03;;;;;;;1.55;1.00;;;19.80;77.20;;;;;;6125930;23;20140;-83
2023/09/13 18:51:29;;;;;;;0.82;0.68;;;19.80;77.20;;;;;;6126307;23;20158;-82
2023/09/13 18:53:56;;;;;;;3.05;0.90;;;19.80;76.90;;;;;;6126105;23;20136;-83
2023/09/13 18:56:21;;;;;;;1.90;0.88;;;19.80;77.00;;;;;;6102080;23;20144;-84
2023/09/13 18:58:47;;;;;;;0.75;0.75;;;19.80;76.90;;;;;;6101611;23;20142;-83
2023/09/13 19:01:13;;;;;;;0.85;0.70;;;19.80;76.40;;;;;;6151794;22;20497;-81
2023/09/13 19:03:40;;;;;;;2.25;0.60;;;19.80;76.10;;;;;;6152647;22;20198;-82
2023/09/13 19:06:08;;;;;;;0.77;0.68;;;19.80;76.50;;;;;;6127604;23;20174;-83
2023/09/13 19:08:34;;;;;;;0.57;0.52;;;19.90;76.70;;;;;;6100756;23;20151;-82
2023/09/13 19:11:00;;;;;;;1.08;0.73;;;19.80;76.40;;;;;;6126115;23;20142;-81
2023/09/13 19:13:27;;;;;;;0.77;0.50;;;19.80;76.50;;;;;;6101393;23;20140;-81
2023/09/13 19:15:57;;;;;;;2.25;0.80;;;19.80;76.30;;;;;;6125978;23;20154;-83
2023/09/13 19:18:23;;;;;;;0.75;0.60;;;19.80;76.30;;;;;;6126107;23;20178;-80
2023/09/13 19:20:49;;;;;;;1.10;1.00;;;19.80;75.90;;;;;;6151943;22;20136;-81
2023/09/13 19:23:14;;;;;;;1.30;0.80;;;19.80;75.80;;;;;;6125722;22;20202;-82
2023/09/13 19:25:41;;;;;;;0.95;0.60;;;19.80;75.60;;;;;;6128345;23;20200;-83
2023/09/13 19:28:07;;;;;;;1.77;0.77;;;19.80;75.60;;;;;;6123969;23;20151;-81
2023/09/13 19:30:34;;;;;;;0.80;0.70;;;19.80;75.20;;;;;;6100764;23;20636;-84
2023/09/13 19:33:08;;;;;;;0.95;0.65;;;19.80;75.40;;;;;;6159530;22;20158;-82
2023/09/13 19:35:37;;;;;;;1.02;0.90;;;19.70;75.10;;;;;;6128568;23;20233;-84
2023/09/13 19:38:06;;;;;;;1.42;0.80;;;19.80;75.20;;;;;;6127815;23;20134;-82
2023/09/13 19:40:36;;;;;;;0.57;0.57;;;19.80;75.20;;;;;;6152855;22;20177;-83
2023/09/13 19:43:03;;;;;;;0.70;0.70;;;19.80;74.60;;;;;;6125506;23;20187;-84
2023/09/13 19:45:33;;;;;;;1.08;0.60;;;19.70;74.70;;;;;;6125867;23;20136;-83
2023/09/13 19:47:59;;;;;;;0.73;0.50;;;19.80;74.50;;;;;;6122647;23;20132;-84
2023/09/13 19:50:25;;;;;;;1.42;0.60;;;19.80;74.50;;;;;;6122928;23;20128;-82
2023/09/13 19:52:52;;;;;;;0.50;0.50;;;19.70;74.10;;;;;;6101233;23;20494;-81
2023/09/13 19:55:20;;;;;;;0.60;0.60;;;19.70;74.30;;;;;;6151637;22;20131;-82
2023/09/13 19:57:48;;;;;;;0.65;0.57;;;19.70;74.10;;;;;;6101849;23;20211;-83
2023/09/13 20:00:14;;;;;;;1.35;0.60;;;19.70;74.30;;;;;;6126006;23;20139;-82
2023/09/13 20:02:40;;;;;;;0.70;0.68;;;19.70;74.00;;;;;;6151894;22;20128;-84
2023/09/13 20:05:07;;;;;;;1.25;0.70;;;19.70;73.60;;;;;;6123956;23;20154;-81
2023/09/13 20:07:34;;;;;;;1.10;0.77;;;19.80;73.70;;;;;;6122527;23;20155;-82
2023/09/13 20:10:03;;;;;;;1.42;0.98;;;19.70;74.10;;;;;;6123042;23;20143;-83
2023/09/13 20:12:30;;;;;;;1.15;0.75;;;19.80;74.80;;;;;;6123742;23;20166;-84
2023/09/13 20:14:56;;;;;;;0.73;0.68;;;19.80;74.50;;;;;;6123474;23;20200;-82
2023/09/13 20:17:23;;;;;;;0.98;0.80;;;19.80;74.30;;;;;;6123074;23;20649;-82
2023/09/13 20:19:49;;;;;;;0.70;0.70;;;19.80;74.20;;;;;;6124191;23;20211;-83
2023/09/13 20:22:15;;;;;;;0.95;0.85;;;19.80;74.10;;;;;;6076704;22;20144;-83
2023/09/13 20:24:42;;;;;;;1.00;0.70;;;19.80;74.60;;;;;;6125434;23;20172;-81
2023/09/13 20:27:08;;;;;;;1.13;0.70;;;19.80;74.50;;;;;;6125367;23;20151;-83
2023/09/13 20:29:34;;;;;;;1.10;0.55;;;19.70;74.50;;;;;;6151413;23;20139;-83
2023/09/13 20:32:00;;;;;;;0.77;0.68;;;19.80;74.50;;;;;;6125557;23;20190;-84
2023/09/13 20:34:31;;;;;;;0.95;0.73;;;19.80;74.20;;;;;;6125236;23;20178;-81
2023/09/13 20:36:58;;;;;;;1.35;0.90;;;19.80;74.20;;;;;;6125143;23;20173;-81
2023/09/13 20:39:24;;;;;;;0.85;0.75;;;19.80;74.20;;;;;;6100954;23;20254;-82
2023/09/13 20:41:49;;;;;;;1.20;0.80;;;19.80;74.20;;;;;;6125789;23;20601;-81
2023/09/13 20:44:15;;;;;;;1.10;0.80;;;19.80;74.30;;;;;;6076180;23;20611;-84
2023/09/13 20:46:41;;;;;;;1.33;0.60;;;19.80;74.30;;;;;;6125314;23;20207;-84
2023/09/13 20:49:07;;;;;;;1.10;0.85;;;19.80;74.30;;;;;;6100925;23;20140;-81
2023/09/13 20:51:35;;;;;;;0.70;0.70;;;19.80;74.30;;;;;;6151303;22;20136;-83
2023/09/13 20:54:00;;;;;;;0.70;0.68;;;19.80;74.30;;;;;;6101167;23;20581;-82
2023/09/13 20:56:26;;;;;;;2.03;0.80;;;19.80;74.30;;;;;;6125376;23;20163;-82
2023/09/13 20:58:52;;;;;;;0.60;0.60;;;19.80;74.30;;;;;;6125394;23;20574;-81
2023/09/13 21:01:18;;;;;;;0.70;0.70;;;19.80;74.50;;;;;;6125955;23;20135;-83
2023/09/13 21:03:44;;;;;;;0.90;0.70;;;19.90;74.50;;;;;;6125077;23;20645;-84
2023/09/13 21:06:09;;;;;;;0.80;0.80;;;19.80;74.40;;;;;;6100787;23;20493;-82
2023/09/13 21:08:36;;;;;;;1.15;0.80;;;19.90;74.70;;;;;;6150386;22;20591;-82
2023/09/13 21:11:05;;;;;;;0.80;0.63;;;19.90;74.80;;;;;;6151226;23;20132;-82
2023/09/13 21:13:32;;;;;;;1.20;0.80;;;19.90;75.00;;;;;;6101806;23;20523;-83
2023/09/13 21:15:59;;;;;;;1.02;0.93;;;19.80;75.00;;;;;;6077337;23;20136;-82
2023/09/13 21:18:26;;;;;;;0.98;0.80;;;19.80;75.10;;;;;;6125473;23;20132;-81
2023/09/13 21:20:54;;;;;;;0.73;0.70;;;19.80;75.30;;;;;;6125215;23;20470;-82
2023/09/13 21:23:19;;;;;;;1.25;0.93;;;19.80;75.60;;;;;;6124691;22;20592;-81
2023/09/13 21:25:46;;;;;;;1.17;0.80;;;19.80;75.30;;;;;;6100921;23;20151;-83
2023/09/13 21:28:12;;;;;;;1.35;0.80;;;19.80;75.40;;;;;;6125121;23;20222;-82
2023/09/13 21:30:37;;;;;;;1.15;0.90;;;19.90;75.60;;;;;;6100726;23;20186;-84
2023/09/13 21:33:03;;;;;;;1.17;0.88;;;19.80;75.30;;;;;;6125061;23;20144;-82
2023/09/13 21:35:29;;;;;;;1.05;0.80;;;19.80;75.40;;;;;;6151021;23;20136;-83
2023/09/13 21:37:56;;;;;;;0.95;0.85;;;19.80;75.40;;;;;;6125121;23;20159;-82
2023/09/13 21:40:22;;;;;;;1.67;0.63;;;19.80;75.50;;;;;;6125560;23;20244;-82
2023/09/13 21:42:48;;;;;;;0.60;0.60;;;19.90;75.60;;;;;;6125150;23;20132;-82
2023/09/13 21:45:14;;;;;;;1.27;0.80;;;19.80;75.50;;;;;;6100641;23;20221;-82
2023/09/13 21:47:40;;;;;;;0.77;0.70;;;19.80;75.50;;;;;;6100706;23;20579;-83
2023/09/13 21:50:06;;;;;;;0.80;0.80;;;19.80;75.50;;;;;;6125391;23;20170;-82
2023/09/13 21:52:32;;;;;;;0.70;0.70;;;19.80;75.50;;;;;;6124772;23;20151;-83
2023/09/13 21:54:58;;;;;;;1.13;0.85;;;19.90;75.70;;;;;;6124828;23;20183;-83
2023/09/13 21:57:27;;;;;;;1.25;0.90;;;19.80;75.50;;;;;;6124580;23;20150;-83
2023/09/13 21:59:53;;;;;;;2.08;1.00;;;19.80;75.60;;;;;;6150900;22;20144;-81
2023/09/13 22:02:18;;;;;;;0.80;0.70;;;19.80;75.60;;;;;;6124970;23;20185;-83
2023/09/13 22:04:45;;;;;;;1.63;0.80;;;19.80;75.60;;;;;;6125161;23;20603;-82
2023/09/13 22:07:11;;;;;;;1.30;0.95;;;19.80;75.50;;;;;;6124783;23;20217;-83
2023/09/13 22:09:37;;;;;;;0.80;0.80;;;19.80;75.50;;;;;;6124408;23;20584;-82
2023/09/13 22:12:04;;;;;;;1.20;0.80;;;19.80;75.50;;;;;;6124838;23;20618;-83
2023/09/13 22:14:30;;;;;;;0.80;0.80;;;19.80;75.50;;;;;;6076767;23;20202;-84
2023/09/13 22:16:56;;;;;;;0.60;0.60;;;19.80;76.40;;;;;;6124788;23;20586;-84
2023/09/13 22:19:22;;;;;;;1.15;0.90;;;19.80;75.60;;;;;;6124923;23;20219;-82
2023/09/13 22:21:47;;;;;;;1.80;0.90;;;19.80;75.60;;;;;;6150584;22;20136;-83
2023/09/13 22:24:13;;;;;;;1.67;0.77;;;19.80;75.60;;;;;;6070997;23;20196;-83
2023/09/13 22:26:39;;;;;;;1.40;0.90;;;19.80;75.60;;;;;;6119991;23;20551;-83
2023/09/13 22:29:05;;;;;;;1.27;0.80;;;19.70;75.70;;;;;;6121311;23;20160;-83
2023/09/13 22:31:31;;;;;;;1.45;0.80;;;19.80;75.80;;;;;;6095322;23;20785;-84
2023/09/13 22:33:57;;;;;;;1.63;1.13;;;19.80;75.80;;;;;;6095213;23;20201;-84
2023/09/13 22:36:23;;;;;;;0.98;0.85;;;19.80;75.80;;;;;;6121085;23;20137;-81
2023/09/13 22:38:49;;;;;;;0.93;0.80;;;19.90;75.80;;;;;;6119593;23;20133;-82
2023/09/13 22:41:15;;;;;;;0.88;0.88;;;19.80;75.80;;;;;;6119753;23;20259;-83
2023/09/13 22:43:42;;;;;;;1.00;0.90;;;19.80;75.80;;;;;;6095171;23;20478;-82
2023/09/13 22:46:08;;;;;;;0.80;0.80;;;19.80;75.70;;;;;;6119831;23;20212;-84
2023/09/13 22:48:34;;;;;;;0.68;0.68;;;19.80;75.80;;;;;;6119633;23;20148;-83
2023/09/13 22:51:00;;;;;;;0.77;0.75;;;19.80;75.80;;;;;;6119508;23;20143;-82
2023/09/13 22:53:26;;;;;;;1.60;0.85;;;19.80;75.70;;;;;;6095223;23;20514;-83
2023/09/13 22:55:52;;;;;;;1.23;0.90;;;19.80;75.80;;;;;;6120856;23;20133;-83
2023/09/13 22:58:19;;;;;;;0.90;0.90;;;19.80;75.80;;;;;;6119470;23;20133;-82
2023/09/13 23:00:45;;;;;;;1.27;0.90;;;19.80;75.90;;;;;;6119614;23;20133;-82
2023/09/13 23:03:10;;;;;;;0.80;0.77;;;19.80;75.90;;;;;;6120928;23;20262;-84
2023/09/13 23:05:37;;;;;;;1.52;0.90;;;19.80;75.80;;;;;;6121003;23;20160;-82
2023/09/13 23:08:05;;;;;;;0.90;0.80;;;19.70;75.70;;;;;;6129501;23;20144;-81
2023/09/13 23:10:31;;;;;;;0.82;0.82;;;19.80;75.90;;;;;;6130545;23;20129;-83
2023/09/13 23:12:59;;;;;;;1.80;0.90;;;19.80;75.90;;;;;;6130648;23;20147;-81
2023/09/13 23:15:26;;;;;;;1.30;0.80;;;19.70;75.90;;;;;;6130450;23;20135;-84
2023/09/13 23:17:52;;;;;;;1.00;0.90;;;19.80;75.90;;;;;;6124151;23;20182;-82
2023/09/13 23:20:18;;;;;;;0.75;0.70;;;19.70;76.80;;;;;;6121212;23;20136;-82
2023/09/13 23:22:44;;;;;;;0.98;0.70;;;19.80;75.90;;;;;;6128557;22;20274;-81
2023/09/13 23:25:10;;;;;;;1.10;0.80;;;19.80;76.00;;;;;;6125749;23;20187;-81
2023/09/13 23:27:36;;;;;;;1.10;0.80;;;19.70;75.90;;;;;;6151920;22;20143;-83
2023/09/13 23:30:03;;;;;;;0.60;0.60;;;19.70;75.70;;;;;;6125705;23;20471;-82
2023/09/13 23:32:29;;;;;;;1.13;0.80;;;19.80;76.00;;;;;;6101422;23;20150;-82
2023/09/13 23:34:55;;;;;;;0.75;0.75;;;19.70;76.00;;;;;;6125789;23;20231;-82
2023/09/13 23:37:21;;;;;;;1.95;0.90;;;19.70;76.00;;;;;;6151613;22;20167;-83
2023/09/13 23:39:48;;;;;;;0.98;0.80;;;19.80;76.00;;;;;;6151752;22;20190;-82
2023/09/13 23:42:14;;;;;;;0.70;0.70;;;19.80;76.10;;;;;;6125840;23;20134;-83
2023/09/13 23:44:40;;;;;;;1.10;1.00;;;19.80;76.00;;;;;;6125608;23;20167;-81
2023/09/13 23:47:06;;;;;;;0.80;0.80;;;19.70;76.00;;;;;;6101447;23;20174;-82
2023/09/13 23:49:33;;;;;;;0.95;0.70;;;19.70;76.10;;;;;;6125569;23;20452;-82
2023/09/13 23:51:59;;;;;;;1.23;1.00;;;19.80;76.10;;;;;;6125700;23;20148;-83
2023/09/13 23:54:24;;;;;;;1.10;0.88;;;19.70;76.10;;;;;;6151674;22;20513;-83
2023/09/13 23:56:50;;;;;;;0.80;0.75;;;19.70;76.10;;;;;;6125783;23;20140;-82
2023/09/13 23:59:17;;;;;;;0.98;0.73;;;19.70;76.10;;;;;;6101327;23;20630;-81
